createdAt,value
2019-05-15T00:01:58.474Z,5.63
2019-05-15T00:09:49.168Z,5.62
2019-05-15T00:12:18.934Z,5.61
2019-05-15T00:14:48.461Z,5.60
2019-05-15T00:17:34.537Z,5.56
2019-05-15T00:20:13.983Z,5.56
2019-05-15T00:22:50.207Z,5.55
2019-05-15T00:25:18.827Z,5.52
2019-05-15T00:27:49.081Z,5.48
2019-05-15T00:30:18.212Z,5.46
2019-05-15T00:33:04.536Z,5.42
2019-05-15T00:35:32.083Z,5.42
2019-05-15T00:38:18.813Z,5.37
2019-05-15T00:40:49.615Z,5.37
2019-05-15T00:43:38.494Z,5.32
2019-05-15T00:46:24.086Z,5.29
2019-05-15T00:48:51.630Z,5.29
2019-05-15T00:51:39.011Z,5.20
2019-05-15T00:54:08.436Z,5.20
2019-05-15T00:56:55.331Z,5.09
2019-05-15T00:59:26.636Z,5.06
2019-05-15T01:01:52.203Z,5.06
2019-05-15T01:04:39.059Z,4.96
2019-05-15T01:09:58.394Z,4.84
2019-05-15T01:12:44.668Z,4.80
2019-05-15T01:15:12.279Z,4.71
2019-05-15T03:25:10.659Z,3.47
2019-05-15T03:27:59.384Z,3.46
2019-05-15T03:31:13.122Z,3.45
2019-05-15T03:35:47.049Z,3.44
2019-05-15T03:38:33.412Z,3.43
2019-05-15T03:41:20.207Z,3.35
2019-05-15T03:44:09.497Z,3.35
2019-05-15T03:46:54.712Z,3.24
2019-05-15T03:49:22.681Z,3.19
2019-05-15T03:52:10.026Z,3.14
2019-05-15T03:54:39.212Z,3.12
2019-05-15T03:57:10.028Z,3.12
2019-05-15T03:59:59.729Z,3.13
2019-05-15T04:05:13.835Z,3.12
2019-05-15T04:08:02.637Z,3.18
2019-05-15T04:10:30.349Z,3.18
2019-05-15T04:12:59.985Z,3.18
2019-05-15T04:15:46.066Z,3.15
2019-05-15T04:18:13.642Z,3.14
2019-05-15T04:21:00.449Z,3.20
2019-05-15T04:23:30.117Z,3.27
2019-05-15T04:26:01.230Z,3.27
2019-05-15T04:28:29.463Z,3.39
2019-05-15T04:33:48.901Z,3.56
2019-05-15T04:36:18.890Z,3.56
2019-05-15T04:38:45.024Z,3.69
2019-05-15T04:41:31.378Z,3.92
2019-05-15T04:43:59.754Z,4.04
2019-05-15T04:46:29.952Z,4.04
2019-05-15T04:48:59.606Z,4.19
2019-05-15T04:51:30.155Z,4.19
2019-05-15T04:53:58.459Z,4.29
2019-05-15T04:56:25.047Z,4.36
2019-05-15T04:58:52.591Z,4.57
2019-05-15T05:01:20.500Z,4.69
2019-05-15T05:04:09.349Z,4.80
2019-05-15T05:06:54.960Z,4.80
2019-05-15T05:09:22.947Z,4.96
2019-05-15T05:12:09.372Z,5.17
2019-05-15T05:14:40.198Z,5.17
2019-05-15T05:17:09.051Z,5.41
2019-05-15T05:19:40.190Z,5.65
2019-05-15T05:22:07.876Z,5.99
2019-05-15T05:24:35.722Z,5.99
2019-05-15T05:27:03.382Z,6.45
2019-05-15T05:29:30.942Z,6.45
2019-05-15T05:31:58.842Z,6.65
2019-05-15T05:34:28.431Z,7.03
2019-05-15T05:37:00.195Z,7.22
2019-05-15T05:39:25.635Z,7.37
2019-05-15T05:41:53.197Z,7.52
2019-05-15T05:44:20.892Z,7.73
2019-05-15T05:46:48.874Z,7.73
2019-05-15T05:49:18.393Z,8.10
2019-05-15T05:51:47.945Z,8.10
2019-05-15T05:54:15.176Z,8.26
2019-05-15T05:56:42.716Z,8.61
2019-05-15T05:59:13.004Z,8.61
2019-05-15T06:01:43.989Z,8.93
2019-05-15T06:04:10.152Z,8.93
2019-05-15T06:06:38.401Z,9.09
2019-05-15T06:09:15.495Z,9.36
2019-05-15T06:11:43.085Z,9.47
2019-05-15T06:14:10.783Z,9.47
2019-05-15T06:16:38.901Z,9.76
2019-05-15T06:19:08.266Z,9.89
2019-05-15T06:21:37.837Z,9.89
2019-05-15T06:24:06.305Z,10.09
2019-05-15T06:26:40.453Z,10.26
2019-05-15T06:29:08.872Z,10.26
2019-05-15T06:31:38.802Z,10.57
2019-05-15T06:34:08.252Z,10.57
2019-05-15T06:36:35.859Z,10.79
2019-05-15T06:39:05.384Z,10.79
2019-05-15T06:41:34.027Z,10.88
2019-05-15T06:44:01.996Z,10.96
2019-05-15T06:46:35.687Z,11.11
2019-05-15T06:49:03.300Z,11.11
2019-05-15T06:51:31.196Z,11.32
2019-05-15T06:53:59.499Z,11.32
2019-05-15T06:56:38.656Z,11.50
2019-05-15T06:59:05.395Z,11.64
2019-05-15T07:01:35.667Z,11.64
2019-05-15T07:04:03.336Z,11.74
2019-05-15T07:06:30.877Z,11.74
2019-05-15T07:09:01.294Z,11.79
2019-05-15T07:11:31.718Z,11.83
2019-05-15T07:14:00.429Z,11.90
2019-05-15T07:16:28.560Z,12.09
2019-05-15T07:18:58.710Z,12.20
2019-05-15T07:21:28.486Z,12.20
2019-05-15T07:23:58.332Z,12.28
2019-05-15T07:26:25.761Z,12.38
2019-05-15T07:28:54.995Z,12.51
2019-05-15T07:31:24.233Z,12.51
2019-05-15T07:33:51.756Z,12.61
2019-05-15T07:36:19.543Z,12.71
2019-05-15T07:38:50.266Z,12.86
2019-05-15T07:41:18.449Z,12.86
2019-05-15T07:43:49.625Z,12.90
2019-05-15T07:46:18.621Z,12.90
2019-05-15T07:48:48.866Z,13.02
2019-05-15T07:51:17.830Z,13.02
2019-05-15T07:53:45.048Z,13.01
2019-05-15T07:56:15.227Z,13.06
2019-05-15T07:58:52.064Z,13.14
2019-05-15T08:01:18.515Z,13.18
2019-05-15T08:03:56.496Z,13.23
2019-05-15T08:06:18.203Z,13.36
2019-05-15T08:08:48.392Z,13.42
2019-05-15T08:11:20.794Z,13.42
2019-05-15T08:13:44.720Z,13.49
2019-05-15T08:16:14.643Z,13.54
2019-05-15T08:18:45.357Z,13.64
2019-05-15T08:21:18.525Z,13.71
2019-05-15T08:23:48.484Z,13.71
2019-05-15T08:26:17.648Z,13.75
2019-05-15T08:28:45.355Z,13.75
2019-05-15T08:31:13.248Z,13.79
2019-05-15T08:33:48.242Z,13.79
2019-05-15T08:36:18.361Z,13.72
2019-05-15T08:38:45.705Z,13.69
2019-05-15T08:41:15.585Z,13.75
2019-05-15T08:43:45.672Z,13.75
2019-05-15T08:46:13.391Z,13.90
2019-05-15T08:48:42.059Z,13.97
2019-05-15T08:51:11.001Z,13.97
2019-05-15T08:53:38.933Z,13.98
2019-05-15T08:56:10.251Z,14.02
2019-05-15T08:58:41.106Z,14.04
2019-05-15T09:01:09.791Z,14.17
2019-05-15T09:03:38.169Z,14.26
2019-05-15T09:06:09.006Z,14.26
2019-05-15T09:08:35.427Z,14.32
2019-05-15T09:11:03.505Z,14.35
2019-05-15T09:13:31.454Z,14.48
2019-05-15T09:16:12.080Z,14.56
2019-05-15T09:18:31.191Z,14.56
2019-05-15T09:20:59.476Z,14.63
2019-05-15T09:23:28.914Z,14.86
2019-05-15T09:25:57.863Z,14.94
2019-05-15T09:28:29.655Z,14.94
2019-05-15T09:30:59.087Z,15.04
2019-05-15T09:33:28.882Z,15.15
2019-05-15T09:35:58.377Z,15.23
2019-05-15T09:38:28.668Z,15.34
2019-05-15T09:40:58.302Z,15.77
2019-05-15T09:43:24.997Z,15.77
2019-05-15T09:45:52.601Z,16.01
2019-05-15T09:48:20.370Z,16.20
2019-05-15T09:50:49.309Z,16.43
2019-05-15T09:53:18.855Z,16.75
2019-05-15T09:55:49.614Z,17.08
2019-05-15T09:58:20.271Z,17.41
2019-05-15T10:00:51.866Z,17.87
2019-05-15T10:03:18.961Z,18.40
2019-05-15T10:05:49.758Z,18.40
2019-05-15T10:08:21.270Z,18.93
2019-05-15T10:10:48.864Z,19.23
2019-05-15T10:13:18.676Z,19.52
2019-05-15T10:15:50.257Z,19.52
2019-05-15T10:18:23.277Z,19.83
2019-05-15T10:20:54.066Z,20.14
2019-05-15T10:23:21.673Z,20.82
2019-05-15T10:25:53.172Z,21.15
2019-05-15T10:28:21.035Z,21.38
2019-05-15T10:30:49.675Z,21.38
2019-05-15T10:33:19.827Z,21.57
2019-05-15T10:35:50.015Z,21.94
2019-05-15T10:38:19.225Z,21.94
2019-05-15T10:41:03.041Z,22.05
2019-05-15T10:43:21.249Z,22.43
2019-05-15T10:45:54.552Z,22.43
2019-05-15T10:48:20.643Z,22.51
2019-05-15T10:50:50.951Z,22.73
2019-05-15T10:53:20.220Z,22.91
2019-05-15T10:55:49.537Z,23.02
2019-05-15T10:58:21.793Z,23.21
2019-05-15T11:00:49.345Z,23.21
2019-05-15T11:03:19.889Z,23.58
2019-05-15T11:05:49.106Z,23.58
2019-05-15T11:08:19.193Z,23.58
2019-05-15T11:10:49.475Z,23.60
2019-05-15T11:13:22.421Z,23.60
2019-05-15T11:15:50.048Z,23.71
2019-05-15T11:18:20.457Z,24.07
2019-05-15T11:20:50.292Z,24.43
2019-05-15T11:23:20.504Z,24.43
2019-05-15T11:25:48.751Z,24.63
2019-05-15T11:28:16.904Z,24.73
2019-05-15T11:30:48.560Z,24.83
2019-05-15T11:33:13.894Z,25.11
2019-05-15T11:35:56.869Z,25.43
2019-05-15T11:38:11.048Z,25.59
2019-05-15T11:40:39.098Z,25.50
2019-05-15T11:43:08.558Z,25.50
2019-05-15T11:45:40.354Z,25.65
2019-05-15T11:48:10.749Z,25.93
2019-05-15T11:50:40.328Z,26.18
2019-05-15T11:53:10.424Z,26.24
2019-05-15T11:55:38.739Z,26.33
2019-05-15T11:58:09.404Z,26.40
2019-05-15T12:00:38.402Z,26.39
2019-05-15T12:03:08.715Z,26.62
2019-05-15T12:05:38.285Z,26.78
2019-05-15T12:08:05.064Z,26.72
2019-05-15T12:10:32.698Z,26.80
2019-05-15T12:13:00.599Z,26.87
2019-05-15T12:15:28.178Z,26.90
2019-05-15T12:17:59.179Z,26.86
2019-05-15T12:20:28.601Z,26.77
2019-05-15T12:22:59.236Z,26.87
2019-05-15T12:25:29.308Z,27.02
2019-05-15T12:27:59.620Z,27.10
2019-05-15T12:30:29.735Z,27.16
2019-05-15T12:33:00.328Z,27.28
2019-05-15T12:35:29.545Z,27.34
2019-05-15T12:37:56.948Z,27.36
2019-05-15T13:00:38.149Z,27.79
2019-05-15T13:03:05.071Z,27.76
2019-05-15T13:05:35.867Z,27.83
2019-05-15T13:08:03.524Z,27.90
2019-05-15T13:10:31.076Z,27.67
2019-05-15T13:13:05.081Z,27.59
2019-05-15T13:15:30.047Z,27.91
2019-05-15T13:17:59.680Z,27.90
2019-05-15T13:20:28.863Z,27.90
2019-05-15T13:22:59.091Z,28.34
2019-05-15T13:25:28.070Z,28.34
2019-05-15T13:27:55.399Z,28.37
2019-05-15T13:30:22.966Z,28.18
2019-05-15T13:32:50.631Z,28.29
2019-05-15T13:35:21.216Z,28.29
2019-05-15T13:37:49.423Z,28.66
2019-05-15T13:40:18.631Z,28.71
2019-05-15T13:42:48.276Z,28.85
2019-05-15T13:45:18.339Z,28.85
2019-05-15T13:47:46.038Z,28.88
2019-05-15T13:50:13.906Z,28.86
2019-05-15T13:52:44.288Z,29.02
2019-05-15T13:55:13.113Z,29.02
2019-05-15T13:57:44.831Z,29.18
2019-05-15T14:00:12.828Z,29.27
2019-05-15T14:02:44.028Z,29.37
2019-05-15T14:05:11.871Z,29.26
2019-05-15T14:07:49.860Z,29.25
2019-05-15T14:10:11.232Z,29.33
2019-05-15T14:12:39.134Z,29.46
2019-05-15T14:15:09.042Z,29.72
2019-05-15T14:17:37.661Z,29.72
2019-05-15T14:20:08.973Z,29.58
2019-05-15T14:22:38.917Z,28.58
2019-05-15T14:25:08.574Z,28.58
2019-05-15T14:27:35.900Z,29.03
2019-05-15T14:30:03.543Z,28.65
2019-05-15T14:32:38.340Z,27.72
2019-05-15T14:35:00.670Z,28.22
2019-05-15T14:37:28.727Z,28.40
2019-05-15T14:39:58.013Z,28.40
2019-05-15T14:42:28.805Z,28.64
2019-05-15T14:44:55.277Z,28.97
2019-05-15T14:47:22.862Z,29.20
2019-05-15T14:49:53.679Z,29.39
2019-05-15T14:52:21.263Z,29.25
2019-05-15T14:54:49.095Z,29.47
2019-05-15T14:57:18.260Z,29.69
2019-05-15T14:59:48.736Z,29.68
2019-05-15T15:02:20.141Z,29.68
2019-05-15T15:04:49.257Z,28.30
2019-05-15T15:07:18.739Z,28.30
2019-05-15T15:09:47.751Z,26.33
2019-05-15T15:12:15.776Z,27.17
2019-05-15T15:14:44.738Z,27.17
2019-05-15T15:17:12.348Z,27.90
2019-05-15T15:19:40.420Z,27.75
2019-05-15T15:22:08.710Z,26.82
2019-05-15T15:24:38.990Z,26.96
2019-05-15T15:27:09.238Z,27.25
2019-05-15T15:29:39.256Z,27.45
2019-05-15T15:32:07.185Z,27.51
2019-05-15T15:34:38.860Z,26.45
2019-05-15T15:37:08.314Z,25.35
2019-05-15T15:39:39.082Z,25.66
2019-05-15T15:42:08.606Z,26.28
2019-05-15T15:44:38.046Z,26.55
2019-05-15T15:47:08.394Z,26.68
2019-05-15T15:49:38.799Z,27.17
2019-05-15T15:52:08.753Z,27.55
2019-05-15T15:54:39.295Z,27.85
2019-05-15T15:57:08.223Z,28.15
2019-05-15T15:59:35.267Z,27.65
2019-05-15T16:02:05.248Z,25.91
2019-05-15T16:04:32.849Z,24.45
2019-05-15T16:07:00.783Z,22.65
2019-05-15T16:09:28.338Z,23.56
2019-05-15T16:11:58.392Z,23.56
2019-05-15T16:14:28.532Z,24.34
2019-05-15T16:16:55.756Z,24.90
2019-05-15T16:19:28.206Z,25.34
2019-05-15T16:21:59.555Z,25.65
2019-05-15T16:24:29.314Z,26.03
2019-05-15T16:27:00.969Z,26.14
2019-05-15T16:29:28.360Z,26.02
2019-05-15T16:31:58.313Z,25.70
2019-05-15T16:34:28.540Z,24.85
2019-05-15T16:37:02.483Z,23.53
2019-05-15T16:39:30.039Z,22.22
2019-05-15T16:41:59.339Z,21.08
2019-05-15T16:44:28.972Z,20.16
2019-05-15T16:46:59.412Z,19.44
2019-05-15T16:49:32.021Z,18.93
2019-05-15T16:51:59.597Z,18.18
2019-05-15T16:54:28.834Z,17.90
2019-05-15T16:56:59.495Z,17.90
2019-05-15T16:59:28.737Z,17.69
2019-05-15T17:01:55.783Z,17.40
2019-05-15T17:04:23.384Z,17.30
2019-05-15T17:06:53.166Z,17.26
2019-05-15T17:09:24.543Z,17.26
2019-05-15T17:11:52.546Z,17.23
2019-05-15T17:14:20.582Z,17.21
2019-05-15T17:16:49.860Z,17.23
2019-05-15T17:19:18.056Z,17.23
2019-05-15T17:21:48.218Z,17.20
2019-05-15T17:24:17.064Z,17.14
2019-05-15T17:26:44.746Z,17.01
2019-05-15T17:29:12.640Z,16.83
2019-05-15T17:31:43.633Z,16.64
2019-05-15T17:34:11.314Z,16.47
2019-05-15T17:36:39.519Z,16.34
2019-05-15T17:39:18.465Z,16.14
2019-05-15T17:41:48.177Z,16.05
2019-05-15T17:44:18.526Z,16.05
2019-05-15T17:46:49.114Z,15.91
2019-05-15T17:49:16.679Z,15.86
2019-05-15T17:51:46.107Z,15.86
2019-05-15T17:54:18.111Z,15.81
2019-05-15T17:56:45.441Z,15.76
2019-05-15T17:59:13.345Z,15.73
2019-05-15T18:01:41.136Z,15.75
2019-05-15T18:04:08.794Z,15.78
2019-05-15T18:06:39.319Z,15.86
2019-05-15T18:09:08.697Z,15.86
2019-05-15T18:11:38.377Z,15.91
2019-05-15T18:14:08.729Z,15.91
2019-05-15T18:16:38.019Z,15.92
2019-05-15T18:19:05.049Z,15.93
2019-05-15T18:21:32.878Z,15.90
2019-05-15T18:24:00.505Z,15.90
2019-05-15T18:26:28.146Z,15.85
2019-05-15T18:29:05.245Z,15.85
2019-05-15T18:31:32.790Z,15.80
2019-05-15T18:34:02.123Z,15.65
2019-05-15T18:36:32.185Z,15.55
2019-05-15T18:39:03.540Z,15.46
2019-05-15T18:41:37.709Z,15.33
2019-05-15T18:44:05.951Z,15.17
2019-05-15T18:46:34.073Z,15.02
2019-05-15T18:49:03.411Z,14.89
2019-05-15T18:51:34.728Z,14.76
2019-05-15T18:54:02.371Z,14.76
2019-05-15T18:56:31.594Z,14.49
2019-05-15T18:59:01.750Z,14.36
2019-05-15T19:01:29.514Z,14.36
2019-05-15T19:04:18.150Z,14.19
2019-05-15T19:06:45.206Z,14.06
2019-05-15T19:09:24.909Z,13.90
2019-05-15T19:12:01.272Z,13.77
2019-05-15T19:14:49.347Z,13.64
2019-05-15T19:17:18.776Z,13.50
2019-05-15T19:19:48.729Z,13.25
2019-05-15T19:22:20.450Z,13.14
2019-05-15T19:24:52.829Z,13.14
2019-05-15T19:27:22.292Z,13.04
2019-05-15T19:29:51.259Z,12.97
2019-05-15T19:32:19.206Z,12.81
2019-05-15T19:34:48.381Z,12.75
2019-05-15T19:37:18.255Z,12.75
2019-05-15T19:39:47.846Z,12.63
2019-05-15T19:42:18.347Z,12.63
2019-05-15T19:44:48.328Z,12.55
2019-05-15T19:47:15.558Z,12.55
2019-05-15T19:49:43.295Z,12.48
2019-05-15T19:52:13.395Z,12.44
2019-05-15T19:54:41.327Z,12.44
2019-05-15T19:57:10.581Z,12.41
2019-05-15T19:59:38.404Z,12.39
2019-05-15T20:02:08.434Z,12.39
2019-05-15T20:04:35.516Z,12.41
2019-05-15T20:07:03.635Z,12.46
2019-05-15T20:09:31.537Z,12.51
2019-05-15T20:12:00.496Z,12.51
2019-05-15T20:14:28.869Z,12.53
2019-05-15T20:17:15.724Z,12.53
2019-05-15T20:19:43.362Z,12.52
2019-05-15T20:22:14.253Z,12.49
2019-05-15T20:24:42.215Z,12.49
2019-05-15T20:27:09.885Z,12.49
2019-05-15T20:29:38.299Z,12.46
2019-05-15T20:32:06.122Z,12.42
2019-05-15T20:34:33.687Z,12.41
2019-05-15T20:37:01.623Z,12.39
2019-05-15T20:39:29.341Z,12.32
2019-05-15T20:41:58.289Z,12.26
2019-05-15T20:44:27.411Z,12.18
2019-05-15T20:46:59.209Z,12.12
2019-05-15T20:49:24.925Z,12.04
2019-05-15T20:52:11.394Z,12.00
2019-05-15T20:55:12.144Z,11.96
2019-05-15T20:57:48.300Z,11.96
2019-05-15T21:03:22.036Z,11.83
2019-05-15T21:05:51.698Z,11.74
2019-05-15T21:08:38.124Z,11.65
2019-05-15T21:16:27.956Z,11.35
2019-05-15T21:22:02.194Z,11.29
2019-05-15T21:30:41.078Z,11.09
2019-05-15T21:33:09.850Z,11.09
2019-05-15T21:35:58.237Z,11.03
2019-05-15T21:38:28.230Z,10.99
2019-05-15T21:41:13.749Z,10.97
2019-05-15T21:43:41.485Z,10.95
2019-05-15T21:46:40.169Z,10.96
2019-05-15T21:48:57.723Z,10.95
2019-05-15T21:51:47.526Z,10.96
2019-05-15T21:54:14.676Z,10.96
2019-05-15T21:57:12.906Z,10.95
2019-05-15T21:59:32.028Z,10.94
2019-05-15T22:02:02.535Z,10.90
2019-05-15T22:07:35.389Z,10.66
2019-05-15T22:15:43.185Z,10.40
2019-05-15T22:18:11.645Z,10.40
2019-05-15T22:20:58.884Z,10.27
2019-05-15T22:23:27.890Z,10.27
2019-05-15T22:25:58.227Z,10.21
2019-05-15T22:28:25.306Z,10.12
2019-05-15T22:33:58.582Z,10.07
2019-05-15T22:39:20.276Z,9.98
2019-05-15T22:44:53.135Z,9.93
2019-05-15T22:47:39.520Z,9.83
2019-05-15T22:50:08.411Z,9.83
2019-05-15T22:52:38.723Z,9.68
2019-05-15T22:55:24.633Z,9.60
2019-05-15T22:58:11.335Z,9.53
2019-05-15T23:00:59.778Z,9.47
2019-05-15T23:03:28.248Z,9.47
2019-05-15T23:06:15.152Z,9.34
2019-05-15T23:08:42.823Z,9.34
2019-05-15T23:11:10.650Z,9.27
2019-05-15T23:14:09.350Z,9.23
2019-05-15T23:19:31.587Z,9.03
2019-05-15T23:24:38.726Z,9.00
2019-05-15T23:27:06.252Z,8.99
2019-05-15T23:29:34.249Z,9.00
2019-05-15T23:32:02.293Z,9.00
2019-05-15T23:34:49.245Z,9.06
2019-05-15T23:37:17.996Z,9.06
2019-05-15T23:40:04.454Z,9.11
2019-05-15T23:45:05.240Z,9.17
2019-05-15T23:47:53.900Z,9.22
2019-05-15T23:50:40.603Z,9.23
2019-05-15T23:53:28.793Z,9.25
2019-05-15T23:59:01.589Z,9.23
